Time;durP1;ratioP1;P1;durP2;ratioP2;P2;SDS_P1;SDS_P2;PMS_P1;PMS_P2;Temp;Humidity;BMP_temperature;BMP_pressure;BME280_temperature;BME280_humidity;BME280_pressure;Samples;Min_cycle;Max_cycle;Signal;HPM_P1;HPM_P2
2023/05/05 00:02:31;;;;;;;9.33;4.47;;;12.50;84.90;;;12.14;55.34;101158.91;5018536;28;20254;-73
2023/05/05 00:05:03;;;;;;;5.83;4.17;;;12.50;85.00;;;12.17;54.85;101164.81;5018249;28;20192;-73
2023/05/05 00:07:36;;;;;;;8.20;4.27;;;12.50;85.30;;;12.02;55.71;101160.22;5018122;28;20192;-73
2023/05/05 00:10:09;;;;;;;7.10;4.90;;;12.40;86.50;;;11.98;55.89;101159.69;5018271;28;20230;-73
2023/05/05 00:12:41;;;;;;;8.33;4.60;;;12.40;85.90;;;11.96;55.65;101158.13;5018659;28;20215;-73
2023/05/05 00:15:13;;;;;;;7.43;4.57;;;12.30;86.20;;;11.91;55.65;101169.38;5018378;28;20227;-73
2023/05/05 00:17:45;;;;;;;8.03;4.70;;;12.30;86.40;;;11.80;55.90;101160.72;5018522;28;20211;-73
2023/05/05 00:20:17;;;;;;;6.30;4.27;;;12.20;86.30;;;11.78;56.50;101168.09;5018285;28;20233;-73
2023/05/05 00:22:50;;;;;;;8.27;4.23;;;12.20;87.00;;;11.77;56.56;101169.09;5018583;28;20195;-73
2023/05/05 00:25:22;;;;;;;4.77;3.87;;;12.10;87.10;;;11.72;56.96;101163.34;5018079;28;20198;-73
2023/05/05 00:27:54;;;;;;;5.13;4.27;;;12.10;87.40;;;11.76;56.31;101159.34;5018023;28;20192;-73
2023/05/05 00:30:26;;;;;;;6.47;4.10;;;12.20;87.70;;;11.72;56.39;101157.97;5017996;28;20239;-73
2023/05/05 00:32:58;;;;;;;4.40;4.00;;;12.10;87.60;;;11.66;56.65;101156.75;5018052;28;20211;-73
2023/05/05 00:35:29;;;;;;;11.30;4.60;;;12.10;88.00;;;11.53;57.10;101154.50;5017880;28;20210;-73
2023/05/05 00:38:03;;;;;;;9.10;4.43;;;12.00;88.10;;;11.37;57.91;101157.03;5017801;28;20223;-73
2023/05/05 00:40:34;;;;;;;6.30;4.27;;;11.80;88.80;;;11.42;57.83;101152.06;5017549;28;20247;-73
2023/05/05 00:43:07;;;;;;;10.10;5.00;;;11.80;89.30;;;11.52;57.23;101151.94;5017931;28;20213;-73
2023/05/05 00:45:41;;;;;;;9.20;4.40;;;12.00;89.20;;;11.48;57.89;101151.44;5017675;28;20196;-73
2023/05/05 00:48:13;;;;;;;6.00;4.63;;;11.90;89.10;;;11.42;57.80;101151.22;5017818;28;20190;-73
2023/05/05 00:50:47;;;;;;;5.23;4.60;;;11.80;89.50;;;11.40;57.95;101154.06;5017389;28;20712;-73
2023/05/05 00:53:20;;;;;;;5.00;4.27;;;11.80;89.60;;;11.41;57.93;101139.63;5017721;28;20204;-73
2023/05/05 00:55:52;;;;;;;6.60;4.73;;;11.80;89.70;;;11.39;57.53;101143.47;5017947;28;20187;-73
2023/05/05 00:58:24;;;;;;;7.53;4.70;;;11.80;89.90;;;11.28;58.14;101135.69;5016696;28;20207;-73
2023/05/05 01:00:56;;;;;;;8.63;4.77;;;11.70;90.00;;;11.27;58.19;101132.16;5017934;28;20231;-73
2023/05/05 01:03:28;;;;;;;6.67;5.20;;;11.70;90.30;;;11.13;59.13;101135.38;5017315;28;20199;-73
2023/05/05 01:06:10;;;;;;;8.37;4.63;;;11.60;90.40;;;11.20;58.62;101131.09;5017377;28;20196;-73
2023/05/05 01:08:55;;;;;;;7.53;4.80;;;11.70;90.50;;;11.18;58.60;101127.72;5017431;28;20191;-73
2023/05/05 01:11:39;;;;;;;8.93;4.33;;;11.60;90.60;;;11.17;59.18;101121.53;5017355;28;20191;-73
2023/05/05 01:14:22;;;;;;;10.93;4.67;;;11.60;91.00;;;11.24;58.62;101120.91;5017407;28;20191;-73
2023/05/05 01:17:06;;;;;;;8.63;4.80;;;11.70;90.60;;;11.11;59.25;101116.78;5018099;28;20196;-73
2023/05/05 01:20:14;;;;;;;9.47;4.83;;;11.60;90.80;;;11.06;59.48;101115.59;5016854;28;20731;-73
2023/05/05 01:22:53;;;;;;;6.60;5.00;;;11.50;91.00;;;11.08;59.73;101116.25;5016839;28;20675;-73
2023/05/05 01:25:49;;;;;;;5.70;4.50;;;11.50;91.20;;;11.02;59.88;101111.53;5017112;28;20641;-73
2023/05/05 01:28:37;;;;;;;7.10;4.57;;;11.50;91.30;;;11.04;60.13;101109.53;5017071;28;20207;-73
2023/05/05 01:31:26;;;;;;;9.20;5.20;;;11.50;91.40;;;10.98;60.14;101110.13;5017016;28;20192;-73
2023/05/05 01:34:07;;;;;;;6.67;4.93;;;11.50;91.30;;;11.03;60.14;101107.81;5016982;28;20656;-73
2023/05/05 01:36:44;;;;;;;6.33;4.67;;;11.50;91.50;;;10.93;60.63;101104.38;5017164;28;20278;-73
2023/05/05 01:39:20;;;;;;;10.90;5.30;;;11.40;91.90;;;10.86;60.66;101106.00;5016549;28;20242;-73
2023/05/05 01:42:02;;;;;;;8.20;4.70;;;11.40;92.10;;;10.88;61.29;101098.66;5017126;28;20614;-73
2023/05/05 01:44:36;;;;;;;5.93;4.60;;;11.40;92.30;;;10.78;61.47;101101.44;5017003;28;20203;-73
2023/05/05 01:47:09;;;;;;;9.03;4.50;;;11.30;92.40;;;10.78;61.53;101103.25;5016362;28;20671;-73
2023/05/05 01:49:46;;;;;;;12.20;5.10;;;11.30;92.50;;;10.65;62.05;101107.13;5016927;28;20235;-73
2023/05/05 01:52:20;;;;;;;9.77;4.67;;;11.20;92.70;;;10.77;61.75;101101.56;5017558;28;20546;-73
2023/05/05 01:54:57;;;;;;;8.37;4.57;;;11.20;92.60;;;10.74;62.52;101107.22;5017101;28;20214;-73
2023/05/05 01:57:33;;;;;;;10.70;5.47;;;11.20;92.80;;;10.72;62.48;101104.69;5016328;28;20215;-73
2023/05/05 02:00:08;;;;;;;7.33;4.60;;;11.20;92.90;;;10.71;62.14;101107.53;5016440;28;20230;-73
2023/05/05 02:02:45;;;;;;;6.30;4.90;;;11.20;93.10;;;10.62;63.01;101102.09;5016701;28;20249;-73
2023/05/05 02:05:22;;;;;;;9.57;4.83;;;11.20;93.40;;;10.65;63.04;101101.78;5016722;28;20195;-73
2023/05/05 02:07:58;;;;;;;10.27;4.60;;;11.20;93.40;;;10.69;62.87;101095.13;5016572;28;20199;-73
2023/05/05 02:10:32;;;;;;;8.17;5.03;;;11.20;93.30;;;10.52;63.67;101092.44;5016127;28;20297;-73
2023/05/05 02:13:05;;;;;;;6.20;4.80;;;11.10;93.90;;;10.57;63.54;101082.97;5016247;28;20196;-73
2023/05/05 02:15:40;;;;;;;6.07;4.60;;;11.10;93.70;;;10.64;63.35;101092.09;5016036;28;20578;-73
2023/05/05 02:18:14;;;;;;;8.67;5.00;;;11.10;93.70;;;10.66;62.86;101083.88;5015842;28;20213;-73
2023/05/05 02:20:48;;;;;;;8.37;5.10;;;11.20;93.70;;;10.60;63.51;101081.81;5015591;28;20719;-73
2023/05/05 02:23:20;;;;;;;8.40;4.50;;;11.10;93.80;;;10.64;63.50;101091.25;5016508;28;20202;-73
2023/05/05 02:25:59;;;;;;;9.37;4.90;;;11.10;93.80;;;10.61;63.78;101092.41;5016613;28;20195;-72
2023/05/05 02:28:47;;;;;;;7.70;5.00;;;11.10;93.90;;;10.60;63.62;101084.50;5016706;28;20190;-72
2023/05/05 02:31:23;;;;;;;11.73;5.20;;;11.10;93.90;;;10.43;64.71;101090.69;5016272;28;20198;-72
2023/05/05 02:34:00;;;;;;;8.57;5.27;;;10.90;94.30;;;10.41;64.62;101084.66;5015879;28;20298;-72
2023/05/05 02:36:37;;;;;;;9.20;4.63;;;10.90;94.60;;;10.40;64.71;101090.97;5016083;28;20596;-72
2023/05/05 02:39:19;;;;;;;7.67;4.97;;;10.90;94.60;;;10.46;64.67;101090.38;5014691;28;20238;-72
2023/05/05 02:41:55;;;;;;;7.63;4.83;;;11.00;94.60;;;10.45;64.24;101092.19;5014711;28;20195;-72
2023/05/05 02:44:28;;;;;;;6.30;4.80;;;10.90;94.40;;;10.47;64.27;101086.72;5015812;28;20202;-72
2023/05/05 02:47:02;;;;;;;6.23;4.87;;;11.00;94.40;;;10.49;64.51;101088.22;5016155;28;20187;-72
2023/05/05 02:49:34;;;;;;;8.20;4.93;;;11.00;94.50;;;10.44;64.48;101077.16;5016682;28;20275;-72
2023/05/05 02:52:08;;;;;;;6.87;5.20;;;11.00;94.50;;;10.37;65.02;101077.91;5016258;28;20195;-72
2023/05/05 02:54:40;;;;;;;9.83;4.70;;;10.80;94.80;;;10.34;65.09;101073.69;5013987;28;20199;-71
2023/05/05 02:57:19;;;;;;;9.63;5.23;;;10.90;94.90;;;10.26;65.39;101081.63;5013408;28;20559;-71
2023/05/05 03:00:00;;;;;;;8.57;4.87;;;10.80;95.00;;;10.19;65.76;101091.25;5013522;28;20231;-71
2023/05/05 03:02:43;;;;;;;9.47;5.10;;;10.70;95.20;;;10.20;65.94;101078.72;5013637;28;20205;-71
2023/05/05 03:05:22;;;;;;;7.30;5.30;;;10.70;95.30;;;10.16;66.06;101071.00;5013273;28;20191;-71
2023/05/05 03:08:02;;;;;;;7.00;4.90;;;10.70;95.30;;;10.12;66.13;101064.22;5013535;28;20569;-71
2023/05/05 03:10:58;;;;;;;10.63;4.87;;;10.70;95.30;;;10.20;65.62;101065.34;5013456;28;20234;-71
2023/05/05 03:13:34;;;;;;;9.83;5.20;;;10.70;95.30;;;10.19;65.89;101064.47;5013503;28;20202;-71
2023/05/05 03:16:08;;;;;;;9.10;4.80;;;10.70;95.40;;;10.14;65.71;101077.47;5013536;28;20195;-71
2023/05/05 03:18:44;;;;;;;8.53;5.13;;;10.60;95.40;;;10.20;65.50;101071.53;5013312;28;20268;-71
2023/05/05 03:21:16;;;;;;;8.70;5.20;;;10.70;95.40;;;10.21;65.67;101069.66;5015242;28;20664;-71
2023/05/05 03:23:50;;;;;;;7.70;5.07;;;10.70;95.30;;;10.20;65.62;101070.69;5017283;28;20195;-71
2023/05/05 03:26:21;;;;;;;7.60;5.00;;;10.70;95.40;;;10.12;66.06;101069.56;5017290;28;20537;-71
2023/05/05 03:28:53;;;;;;;8.07;4.97;;;10.60;95.60;;;10.13;66.00;101070.41;5017141;28;20278;-72
2023/05/05 03:31:27;;;;;;;10.03;5.13;;;10.60;95.60;;;10.11;66.03;101078.56;5017147;28;20211;-71
2023/05/05 03:33:58;;;;;;;10.33;5.77;;;10.60;95.60;;;10.09;66.28;101080.56;5017127;28;20192;-71
2023/05/05 03:36:31;;;;;;;9.37;5.67;;;10.50;95.70;;;9.98;66.68;101077.22;5017053;28;20188;-71
2023/05/05 03:39:05;;;;;;;8.90;5.43;;;10.50;95.90;;;9.97;66.59;101060.34;5016794;28;20236;-71
2023/05/05 03:41:36;;;;;;;6.53;4.80;;;10.50;95.90;;;10.00;66.65;101075.28;5016945;28;20207;-71
2023/05/05 03:44:08;;;;;;;5.63;5.00;;;10.50;95.90;;;9.92;67.35;101072.47;5016859;28;20191;-71
2023/05/05 03:46:40;;;;;;;7.63;5.53;;;10.40;96.20;;;9.91;67.17;101073.47;5016838;28;20196;-71
2023/05/05 03:49:12;;;;;;;14.77;5.67;;;10.40;96.10;;;9.97;67.24;101080.88;5016791;28;20224;-72
2023/05/05 03:51:44;;;;;;;8.60;5.03;;;10.40;96.20;;;9.91;67.35;101081.50;5016774;28;20192;-72
2023/05/05 03:54:18;;;;;;;7.50;5.03;;;10.40;96.30;;;9.86;67.44;101083.78;5017541;28;20202;-71
2023/05/05 03:56:49;;;;;;;8.77;5.37;;;10.40;96.30;;;9.84;67.24;101085.75;5016680;28;20191;-71
2023/05/05 03:59:21;;;;;;;8.47;5.13;;;10.50;96.40;;;9.91;67.26;101076.13;5016499;28;20238;-71
2023/05/05 04:01:53;;;;;;;9.37;5.13;;;10.40;96.30;;;9.85;67.75;101082.09;5016612;28;20533;-71
2023/05/05 04:04:25;;;;;;;8.83;5.23;;;10.40;96.50;;;9.79;68.25;101082.69;5016555;28;20278;-71
2023/05/05 04:06:57;;;;;;;8.63;5.43;;;10.30;96.50;;;9.89;67.66;101078.13;5016506;28;20215;-71
2023/05/05 04:09:30;;;;;;;11.30;5.20;;;10.40;96.40;;;9.80;68.16;101070.97;5016624;28;20224;-71
2023/05/05 04:12:02;;;;;;;9.13;5.07;;;10.30;96.50;;;9.85;67.60;101077.59;5016807;28;20536;-71
2023/05/05 04:14:34;;;;;;;14.77;5.67;;;10.40;96.50;;;9.80;67.51;101084.34;5016375;28;20196;-71
2023/05/05 04:17:06;;;;;;;7.87;4.97;;;10.30;96.50;;;9.85;67.70;101082.94;5016021;28;20565;-71
2023/05/05 04:19:38;;;;;;;7.87;5.30;;;10.40;97.00;;;9.82;67.57;101074.38;5016663;28;20254;-71
2023/05/05 04:22:10;;;;;;;6.83;4.57;;;10.30;96.60;;;9.76;68.01;101067.75;5016213;28;20606;-71
2023/05/05 04:24:43;;;;;;;8.50;5.53;;;10.20;96.80;;;9.69;68.65;101070.16;5016194;28;20207;-71
2023/05/05 04:27:15;;;;;;;10.33;5.63;;;10.20;97.40;;;9.63;69.14;101072.59;5016123;28;20195;-71
2023/05/05 04:29:47;;;;;;;10.07;5.23;;;10.20;97.00;;;9.57;69.24;101075.84;5016002;28;20220;-72
2023/05/05 04:32:18;;;;;;;10.00;5.53;;;10.10;97.20;;;9.59;68.75;101077.38;5015724;28;20215;-72
2023/05/05 04:34:50;;;;;;;11.50;5.60;;;10.10;97.60;;;9.61;69.25;101090.63;5015664;28;20247;-72
2023/05/05 04:37:22;;;;;;;9.60;5.30;;;10.10;97.30;;;9.63;68.79;101094.81;5015653;28;20664;-72
2023/05/05 04:39:55;;;;;;;11.30;6.07;;;10.20;97.30;;;9.65;68.98;101095.53;5015457;28;20627;-72
2023/05/05 04:42:27;;;;;;;10.27;5.60;;;10.20;97.20;;;9.62;69.29;101098.47;5015875;28;20312;-72
2023/05/05 04:44:59;;;;;;;7.70;5.33;;;10.20;97.50;;;9.62;69.40;101098.47;5015966;28;20223;-72
2023/05/05 04:47:31;;;;;;;10.00;5.20;;;10.20;97.40;;;9.65;69.26;101108.91;5015763;28;20286;-72
2023/05/05 04:50:03;;;;;;;13.63;5.63;;;10.20;97.40;;;9.67;69.36;101093.56;5015668;28;20230;-72
2023/05/05 04:52:35;;;;;;;9.33;5.53;;;10.20;97.40;;;9.64;69.62;101093.00;5015391;28;20691;-72
2023/05/05 04:55:10;;;;;;;7.97;4.80;;;10.20;97.50;;;9.62;69.43;101087.78;5015595;28;20191;-72
2023/05/05 04:57:42;;;;;;;10.13;5.63;;;10.10;97.60;;;9.61;69.56;101077.25;5015573;28;20246;-72
2023/05/05 05:00:16;;;;;;;8.97;5.70;;;10.20;97.50;;;9.62;69.74;101071.75;5014953;28;20723;-72
2023/05/05 05:02:48;;;;;;;9.13;5.17;;;10.20;97.50;;;9.55;69.44;101062.66;5015758;28;20192;-72
2023/05/05 05:05:20;;;;;;;9.87;5.50;;;10.10;97.60;;;9.41;70.41;101078.31;5016198;28;20191;-72
2023/05/05 05:07:52;;;;;;;9.00;5.30;;;10.10;97.80;;;9.45;70.47;101079.72;5015370;28;20294;-72
2023/05/05 05:10:25;;;;;;;9.23;6.40;;;10.00;97.90;;;9.45;70.12;101077.84;5015224;28;20231;-72
2023/05/05 05:12:57;;;;;;;10.13;5.47;;;10.00;98.00;;;9.44;70.52;101084.19;5015240;28;20196;-72
2023/05/05 05:15:30;;;;;;;9.00;5.20;;;10.00;98.00;;;9.52;70.07;101078.94;5014959;28;20239;-72
2023/05/05 05:18:01;;;;;;;9.00;5.70;;;10.10;97.90;;;9.56;69.94;101074.16;5015209;28;20199;-72
2023/05/05 05:20:34;;;;;;;8.27;5.73;;;10.10;97.90;;;9.58;70.50;101078.41;5014999;28;20245;-72
2023/05/05 05:23:06;;;;;;;7.83;5.30;;;10.20;97.80;;;9.57;70.60;101075.84;5014948;28;20199;-72
2023/05/05 05:25:39;;;;;;;15.43;6.40;;;10.10;98.00;;;9.51;70.62;101079.97;5014628;28;20238;-72
2023/05/05 05:28:11;;;;;;;8.03;5.77;;;10.10;98.20;;;9.60;70.92;101072.88;5014851;28;20203;-72
2023/05/05 05:30:42;;;;;;;9.40;5.60;;;10.20;98.10;;;9.62;70.92;101077.09;5014809;28;20227;-73
2023/05/05 05:33:14;;;;;;;8.83;5.93;;;10.20;98.10;;;9.71;71.06;101071.88;5014465;28;20222;-73
2023/05/05 05:35:46;;;;;;;9.20;6.07;;;10.30;98.10;;;9.78;70.77;101071.13;5014734;28;20287;-73
2023/05/05 05:38:18;;;;;;;8.87;6.30;;;10.40;98.00;;;9.86;70.24;101079.28;5014656;28;20198;-72
2023/05/05 05:40:53;;;;;;;12.07;5.67;;;10.50;98.00;;;9.92;70.36;101067.13;5014465;28;20239;-72
2023/05/05 05:43:25;;;;;;;12.87;6.00;;;10.50;97.80;;;9.96;69.63;101076.56;5014088;28;20219;-72
2023/05/05 05:45:56;;;;;;;12.33;5.67;;;10.60;97.50;;;9.95;69.30;101074.84;5014681;28;20573;-71
2023/05/05 05:48:28;;;;;;;10.73;5.23;;;10.60;97.40;;;9.91;69.20;101081.50;5014500;28;20196;-72
2023/05/05 05:51:01;;;;;;;7.87;5.90;;;10.50;97.70;;;9.91;69.17;101082.34;5014467;28;20184;-72
2023/05/05 05:53:34;;;;;;;9.27;5.87;;;10.50;97.30;;;9.98;69.33;101077.22;5014467;28;20196;-73
2023/05/05 05:56:09;;;;;;;14.70;6.50;;;10.60;97.40;;;10.02;69.20;101071.44;5014592;28;20200;-71
2023/05/05 05:58:41;;;;;;;11.97;5.47;;;10.60;97.20;;;10.07;69.00;101073.66;5014403;28;20195;-72
2023/05/05 06:01:13;;;;;;;13.07;5.93;;;10.70;97.20;;;10.10;69.15;101062.69;5014477;28;20216;-72
2023/05/05 06:03:45;;;;;;;13.57;6.23;;;10.70;97.20;;;10.13;68.96;101065.06;5014370;28;20196;-72
2023/05/05 06:06:17;;;;;;;10.57;5.47;;;10.80;97.00;;;10.16;68.45;101075.50;5014439;28;20199;-72
2023/05/05 06:08:50;;;;;;;9.83;5.93;;;10.80;96.90;;;10.18;68.57;101073.50;5013979;28;20663;-72
2023/05/05 06:11:23;;;;;;;13.63;6.20;;;10.80;97.00;;;10.21;68.48;101080.38;5014345;28;20199;-72
2023/05/05 06:13:55;;;;;;;9.67;6.10;;;10.90;97.10;;;10.26;68.79;101080.78;5014297;28;20258;-72
2023/05/05 06:16:29;;;;;;;11.60;6.10;;;10.90;97.00;;;10.32;68.71;101083.69;5013983;28;20667;-72
2023/05/05 06:19:01;;;;;;;9.30;5.90;;;11.00;97.00;;;10.40;68.45;101089.16;5014117;28;20250;-72
2023/05/05 06:21:33;;;;;;;10.30;6.30;;;11.00;96.80;;;10.48;68.33;101086.53;5014179;28;20219;-72
2023/05/05 06:24:04;;;;;;;11.17;6.17;;;11.10;96.90;;;10.53;68.46;101100.34;5014488;28;20214;-72
2023/05/05 06:26:38;;;;;;;11.50;6.73;;;11.20;97.00;;;10.60;67.85;101106.75;5014182;28;20198;-72
2023/05/05 06:29:10;;;;;;;9.37;6.37;;;11.20;96.60;;;10.65;67.19;101109.00;5014068;28;20224;-72
2023/05/05 06:31:45;;;;;;;9.63;6.00;;;11.30;96.30;;;10.68;67.21;101109.50;5013864;28;20207;-72
2023/05/05 06:34:17;;;;;;;13.07;6.10;;;11.30;96.30;;;10.79;68.97;101104.94;5014140;28;20195;-72
2023/05/05 06:36:48;;;;;;;9.53;6.60;;;11.40;97.00;;;10.90;67.79;101107.38;5014379;28;20203;-72
2023/05/05 06:39:20;;;;;;;9.00;6.60;;;11.50;96.60;;;11.00;66.73;101100.94;5013936;28;20231;-72
2023/05/05 06:41:53;;;;;;;8.90;5.87;;;11.70;96.30;;;11.06;66.69;101102.19;5013923;28;20190;-72
2023/05/05 06:44:27;;;;;;;8.37;6.53;;;11.70;95.80;;;11.15;66.13;101099.41;5013684;28;20581;-72
2023/05/05 06:46:59;;;;;;;10.43;6.00;;;11.80;96.10;;;11.25;65.56;101098.47;5013640;28;20573;-72
2023/05/05 06:49:31;;;;;;;10.53;6.53;;;11.90;95.40;;;11.32;65.44;101103.06;5013481;28;20739;-72
2023/05/05 06:52:03;;;;;;;9.47;6.43;;;12.00;95.90;;;11.35;66.69;101102.75;5013429;28;20628;-71
2023/05/05 06:54:35;;;;;;;16.17;7.63;;;12.00;95.80;;;11.41;65.79;101094.06;5013431;28;20653;-72
2023/05/05 06:57:08;;;;;;;9.77;6.13;;;12.10;95.50;;;11.42;64.64;101103.78;5017520;28;20198;-72
2023/05/05 06:59:41;;;;;;;10.37;6.63;;;12.10;95.00;;;11.45;64.70;101099.94;5017731;28;20228;-72
2023/05/05 07:02:13;;;;;;;8.67;6.93;;;12.10;95.10;;;11.47;64.50;101106.84;5017773;28;20195;-71
2023/05/05 07:04:45;;;;;;;9.17;6.30;;;12.10;94.70;;;11.50;64.44;101103.03;5017744;28;20202;-72
2023/05/05 07:07:17;;;;;;;10.70;6.80;;;12.20;94.90;;;11.56;64.62;101097.88;5017692;28;20195;-72
2023/05/05 07:09:49;;;;;;;11.93;6.33;;;12.20;94.90;;;11.57;65.51;101094.19;5017715;28;20231;-72
2023/05/05 07:12:22;;;;;;;11.13;6.53;;;12.20;95.20;;;11.62;64.45;101094.53;5017621;28;20214;-72
2023/05/05 07:14:55;;;;;;;11.13;6.10;;;12.30;94.90;;;11.67;64.78;101080.66;5017393;28;20195;-72
2023/05/05 07:17:27;;;;;;;9.00;6.10;;;12.30;95.20;;;11.74;64.93;101083.59;5016749;28;20196;-73
2023/05/05 07:19:59;;;;;;;10.90;6.50;;;12.40;94.90;;;11.76;64.96;101087.78;5017762;28;20227;-72
2023/05/05 07:22:31;;;;;;;13.20;7.07;;;12.40;95.00;;;11.80;64.23;101083.78;5017487;28;20206;-72
2023/05/05 07:25:04;;;;;;;10.00;6.33;;;12.40;94.70;;;11.84;64.44;101092.34;5017339;28;20243;-72
2023/05/05 07:27:38;;;;;;;10.23;6.70;;;12.50;94.60;;;11.89;64.61;101084.66;5017394;28;20196;-72
2023/05/05 07:30:15;;;;;;;9.40;6.53;;;12.50;94.60;;;11.93;63.46;101080.66;5017276;28;20223;-72
2023/05/05 07:32:49;;;;;;;8.43;6.73;;;12.60;94.20;;;11.98;63.71;101083.72;5017076;28;20273;-72
2023/05/05 07:35:21;;;;;;;11.77;7.13;;;12.60;94.30;;;12.00;63.52;101079.84;5017323;28;20188;-72
2023/05/05 07:37:55;;;;;;;12.87;6.50;;;12.70;94.40;;;12.07;63.38;101082.72;5017867;28;20192;-72
2023/05/05 07:40:27;;;;;;;9.40;6.87;;;12.70;94.40;;;12.11;63.46;101084.09;5017081;28;20231;-72
2023/05/05 07:43:00;;;;;;;10.60;6.80;;;12.80;94.30;;;12.19;64.86;101086.81;5017161;28;20195;-72
2023/05/05 07:45:32;;;;;;;11.00;6.93;;;12.80;94.60;;;12.29;64.32;101087.53;5017110;28;20191;-72
2023/05/05 07:48:04;;;;;;;9.00;6.63;;;12.90;94.70;;;12.43;63.38;101086.06;5017104;28;20191;-72
2023/05/05 07:50:38;;;;;;;12.33;7.17;;;13.00;94.10;;;12.58;63.10;101087.94;5017147;28;20223;-72
2023/05/05 07:53:11;;;;;;;10.97;7.53;;;13.20;94.20;;;12.66;62.08;101090.63;5016844;28;20541;-73
2023/05/05 07:55:45;;;;;;;10.07;6.80;;;13.30;93.60;;;12.68;62.17;101077.03;5016783;28;20191;-73
2023/05/05 07:58:18;;;;;;;11.40;7.63;;;13.30;93.20;;;12.74;62.38;101081.72;5016845;28;20199;-73
2023/05/05 08:00:52;;;;;;;11.80;6.93;;;13.40;93.60;;;12.77;62.26;101085.94;5016620;28;20254;-73
2023/05/05 08:03:24;;;;;;;8.77;7.50;;;13.40;93.80;;;12.86;60.16;101084.94;5016498;28;20556;-71
2023/05/05 08:06:05;;;;;;;13.77;6.70;;;13.40;92.70;;;12.91;61.32;101083.41;5016301;28;20282;-72
2023/05/05 08:08:38;;;;;;;14.50;7.40;;;13.50;92.80;;;12.95;61.21;101071.34;5016392;28;20195;-72
2023/05/05 08:11:10;;;;;;;12.93;7.03;;;13.60;92.80;;;13.05;60.88;101081.91;5016600;28;20192;-72
2023/05/05 08:13:43;;;;;;;11.60;7.37;;;13.70;92.90;;;13.11;61.11;101084.00;5016131;28;20568;-72
2023/05/05 08:16:15;;;;;;;19.27;7.60;;;13.70;92.60;;;13.18;60.42;101101.13;5016406;28;20196;-72
2023/05/05 08:18:49;;;;;;;10.57;7.13;;;13.80;92.20;;;13.19;60.74;101102.78;5016227;28;20591;-72
2023/05/05 08:21:21;;;;;;;11.63;7.43;;;13.80;92.80;;;13.28;60.74;101112.56;5016204;28;20216;-72
2023/05/05 08:23:52;;;;;;;10.93;7.03;;;13.80;92.90;;;13.33;59.83;101117.41;5016257;28;20195;-72
2023/05/05 08:26:24;;;;;;;9.30;7.33;;;13.90;92.40;;;13.42;59.52;101113.72;5016147;28;20202;-72
2023/05/05 08:28:59;;;;;;;12.27;6.93;;;14.00;92.20;;;13.47;60.52;101112.19;5016380;28;20239;-72
2023/05/05 08:31:36;;;;;;;12.03;7.63;;;14.10;92.70;;;13.54;59.42;101118.56;5016140;28;20209;-72
2023/05/05 08:34:08;;;;;;;10.03;7.40;;;14.20;91.80;;;13.63;58.60;101122.91;5016090;28;20195;-72
2023/05/05 08:36:40;;;;;;;10.33;6.93;;;14.20;91.80;;;13.73;58.44;101128.94;5015967;28;20660;-71
2023/05/05 08:39:12;;;;;;;10.63;6.17;;;14.30;91.40;;;13.77;59.78;101134.03;5015876;28;20227;-72
2023/05/05 08:41:44;;;;;;;10.33;6.87;;;14.40;92.10;;;13.88;58.70;101136.31;5015790;28;20219;-73
2023/05/05 08:44:17;;;;;;;10.90;7.77;;;14.50;91.80;;;14.00;58.99;101143.03;5015858;28;20191;-72
2023/05/05 08:46:51;;;;;;;11.83;6.90;;;14.60;91.30;;;14.15;58.26;101146.66;5015849;28;20188;-72
2023/05/05 08:49:24;;;;;;;13.63;6.70;;;14.70;91.30;;;14.26;57.45;101151.69;5015339;28;20322;-72
2023/05/05 08:51:59;;;;;;;9.07;7.20;;;14.90;90.70;;;14.40;57.87;101153.69;5015647;28;20188;-71
2023/05/05 08:54:34;;;;;;;9.20;7.03;;;15.00;91.10;;;14.53;58.29;101156.66;5015661;28;20187;-72
2023/05/05 08:57:10;;;;;;;11.23;7.10;;;15.20;91.00;;;14.79;56.05;101147.44;5015605;28;20202;-72
2023/05/05 08:59:44;;;;;;;14.77;7.53;;;15.40;89.80;;;14.93;56.17;101149.38;5015475;28;20227;-72
2023/05/05 09:02:18;;;;;;;11.47;7.37;;;15.50;90.40;;;15.00;55.70;101140.38;5015714;28;20223;-72
2023/05/05 09:04:50;;;;;;;14.13;6.90;;;15.60;89.70;;;15.02;57.59;101132.09;5015566;28;20246;-72
2023/05/05 09:07:24;;;;;;;12.13;7.53;;;15.60;90.20;;;15.05;57.02;101116.41;5015362;28;20200;-72
2023/05/05 09:09:58;;;;;;;10.60;7.20;;;15.60;90.40;;;15.16;56.76;101117.84;5015449;28;20598;-72
2023/05/05 09:12:34;;;;;;;7.53;6.73;;;15.70;90.30;;;15.19;55.65;101101.28;5015199;28;20192;-73
2023/05/05 09:15:10;;;;;;;11.60;8.13;;;15.80;89.00;;;15.22;56.18;101096.38;5014720;28;20191;-73
2023/05/05 09:17:44;;;;;;;13.87;8.10;;;15.80;89.30;;;15.32;56.06;101097.97;5014443;28;20627;-73
2023/05/05 09:20:17;;;;;;;14.37;7.47;;;15.90;89.30;;;15.36;56.38;101102.84;5014954;28;20281;-73
2023/05/05 09:22:52;;;;;;;10.60;7.23;;;15.90;90.00;;;15.42;56.14;101095.84;5015083;28;20211;-73
2023/05/05 09:25:23;;;;;;;8.60;7.23;;;16.00;89.40;;;15.54;57.39;101100.69;5015159;28;20191;-73
2023/05/05 09:27:55;;;;;;;10.07;7.40;;;16.10;90.20;;;15.68;56.34;101090.94;5015214;28;20196;-72
2023/05/05 09:30:30;;;;;;;11.37;7.83;;;16.20;89.50;;;15.86;54.30;101087.84;5014981;28;20571;-72
2023/05/05 09:33:04;;;;;;;11.67;8.20;;;16.40;87.50;;;15.99;54.18;101091.56;5014662;28;20234;-72
2023/05/05 09:35:53;;;;;;;10.23;8.00;;;16.50;87.70;;;16.11;54.74;101095.47;5014610;28;20662;-72
2023/05/05 09:38:26;;;;;;;11.20;7.20;;;16.70;87.70;;;16.20;56.00;101080.84;5014861;28;20203;-72
2023/05/05 09:40:58;;;;;;;13.17;8.33;;;16.80;88.90;;;16.40;53.28;101077.56;5014805;28;20199;-72
2023/05/05 09:43:30;;;;;;;15.83;7.90;;;16.90;86.50;;;16.54;52.92;101076.69;5014787;28;20192;-72
2023/05/05 09:46:11;;;;;;;11.10;7.30;;;17.10;85.40;;;16.63;52.73;101081.81;5014747;28;20196;-72
2023/05/05 09:48:42;;;;;;;11.80;7.67;;;17.20;85.40;;;16.68;51.27;101076.66;5014393;28;20648;-72
2023/05/05 09:51:15;;;;;;;10.37;7.53;;;17.20;82.40;;;16.70;53.23;101088.13;5014329;28;20202;-72
2023/05/05 09:53:46;;;;;;;12.80;8.03;;;17.20;85.10;;;16.83;51.80;101083.88;5014910;28;20192;-72
2023/05/05 09:56:18;;;;;;;10.53;7.53;;;17.40;83.60;;;16.88;51.19;101078.75;5014694;28;20192;-73
2023/05/05 09:58:50;;;;;;;12.63;8.03;;;17.40;82.60;;;16.93;51.09;101087.94;5014575;28;20195;-73
2023/05/05 10:01:27;;;;;;;9.80;7.50;;;17.40;81.60;;;16.98;52.02;101095.47;5014935;28;20195;-71
2023/05/05 10:03:59;;;;;;;17.33;11.87;;;17.50;82.50;;;16.98;50.87;101095.47;5014587;28;20188;-72
2023/05/05 10:06:46;;;;;;;14.43;10.00;;;17.50;81.90;;;17.01;52.31;101095.09;5014900;28;20214;-73
2023/05/05 10:09:19;;;;;;;13.87;8.33;;;17.50;82.70;;;17.04;50.49;101106.34;5014613;28;20318;-73
2023/05/05 10:11:56;;;;;;;12.40;9.90;;;17.50;80.60;;;17.10;50.90;101099.31;5014517;28;20183;-72
2023/05/05 10:14:31;;;;;;;7.50;6.50;;;17.60;81.10;;;17.15;52.17;101102.31;5014330;28;20533;-72
2023/05/05 10:17:06;;;;;;;8.20;6.77;;;17.60;83.10;;;17.29;51.75;101104.09;5014269;28;20200;-72
2023/05/05 10:19:41;;;;;;;18.43;13.37;;;17.70;83.10;;;17.41;51.23;101102.53;5013923;28;20656;-72
2023/05/05 10:22:13;;;;;;;9.97;7.57;;;17.90;81.20;;;17.54;50.15;101088.25;5014016;28;20680;-72
2023/05/05 10:24:51;;;;;;;11.73;6.93;;;18.00;79.90;;;17.62;49.69;101088.97;5014136;28;20307;-72
2023/05/05 10:27:28;;;;;;;9.03;7.30;;;18.10;78.30;;;17.66;49.40;101090.25;5014337;28;20218;-72
2023/05/05 10:30:11;;;;;;;7.80;6.70;;;18.10;78.90;;;17.71;49.49;101086.94;5013894;28;20235;-72
2023/05/05 10:32:51;;;;;;;9.77;7.00;;;18.20;79.10;;;17.76;47.19;101081.78;5013810;28;20215;-72
2023/05/05 10:35:50;;;;;;;7.73;6.20;;;18.20;76.10;;;17.88;47.82;101082.03;5015347;28;20203;-72
2023/05/05 10:38:23;;;;;;;9.03;6.93;;;18.30;76.90;;;17.95;48.91;101081.03;5013801;28;20193;-72
2023/05/05 10:41:00;;;;;;;11.77;6.93;;;18.40;77.10;;;18.03;48.82;101069.22;5013895;28;20285;-72